createdAt,value
2023-02-02T00:00:57.592Z,79.16
2023-02-02T00:07:17.609Z,79.3
2023-02-02T00:13:40.610Z,79.46
2023-02-02T00:20:00.622Z,79.48
2023-02-02T00:26:23.675Z,79.85
2023-02-02T00:32:43.613Z,79.92
2023-02-02T00:39:06.609Z,79.89
2023-02-02T00:45:26.764Z,79.93
2023-02-02T00:51:49.583Z,80.07
2023-02-02T00:58:09.596Z,79.99
2023-02-02T01:04:32.588Z,80
2023-02-02T01:10:52.630Z,80.07
2023-02-02T01:17:15.587Z,80.69
2023-02-02T01:23:35.611Z,81.24
2023-02-02T01:29:58.583Z,81.67
2023-02-02T01:36:18.641Z,81.33
2023-02-02T01:42:41.562Z,80.59
2023-02-02T01:49:01.612Z,80.62
2023-02-02T01:55:24.993Z,81.71
2023-02-02T02:01:44.605Z,83.75
2023-02-02T02:08:07.560Z,85.68
2023-02-02T02:14:27.637Z,86.54
2023-02-02T02:20:50.636Z,86.86
2023-02-02T02:27:10.651Z,86.58
2023-02-02T02:33:33.619Z,87.04
2023-02-02T02:39:53.603Z,86.65
2023-02-02T02:46:16.620Z,86.37
2023-02-02T02:52:36.679Z,86.18
2023-02-02T02:58:59.593Z,85.6
2023-02-02T03:05:19.641Z,84.99
2023-02-02T03:11:42.626Z,84.29
2023-02-02T03:18:02.632Z,84.38
2023-02-02T03:24:25.593Z,84.2
2023-02-02T03:30:45.665Z,84
2023-02-02T03:37:08.565Z,84.36
2023-02-02T03:43:28.680Z,84.5
2023-02-02T03:49:51.662Z,84.65
2023-02-02T03:56:11.595Z,84.81
2023-02-02T04:02:34.619Z,84.6
2023-02-02T04:08:54.680Z,85.12
2023-02-02T04:15:17.582Z,85.61
2023-02-02T04:21:37.609Z,85.36
2023-02-02T04:37:47.598Z,85.39
2023-02-02T04:44:07.567Z,84.99
2023-02-02T04:50:30.729Z,84.66
2023-02-02T04:56:50.595Z,85.14
2023-02-02T05:03:13.628Z,85.11
2023-02-02T05:09:33.629Z,85.59
2023-02-02T05:15:56.624Z,86.03
2023-02-02T05:22:16.590Z,86.21
2023-02-02T05:28:39.602Z,86.06
2023-02-02T05:34:59.624Z,86.11
2023-02-02T05:41:22.597Z,85.41
2023-02-02T05:47:42.576Z,85.14
2023-02-02T05:54:05.609Z,85.08
2023-02-02T06:00:25.569Z,85.12
2023-02-02T06:06:48.618Z,85.16
2023-02-02T06:13:08.674Z,85.18
2023-02-02T06:19:31.574Z,85.05
2023-02-02T06:25:51.606Z,84.73
2023-02-02T06:32:14.591Z,84.61
2023-02-02T06:38:34.616Z,84.32
2023-02-02T06:44:57.629Z,83.35
2023-02-02T06:51:17.593Z,83.46
2023-02-02T06:57:40.665Z,83.25
2023-02-02T07:04:00.650Z,82.74
2023-02-02T07:11:10.345Z,82.62
2023-02-02T07:16:43.630Z,82.39
2023-02-02T07:23:06.575Z,82.44
2023-02-02T07:29:26.705Z,82.2
2023-02-02T07:35:49.574Z,82.05
2023-02-02T07:42:09.617Z,82.45
2023-02-02T07:48:32.597Z,82.13
2023-02-02T07:54:57.712Z,81.78
2023-02-02T08:01:15.591Z,81.61
2023-02-02T08:07:35.649Z,82.04
2023-02-02T08:13:58.600Z,82.54
2023-02-02T08:20:18.640Z,83.19
2023-02-02T08:26:41.649Z,83.79
2023-02-02T08:33:01.684Z,84.01
2023-02-02T08:39:24.577Z,84.46
2023-02-02T08:46:00.635Z,84.63
2023-02-02T08:52:07.600Z,84.46
2023-02-02T08:58:27.619Z,83.94
2023-02-02T09:04:50.695Z,84.03
2023-02-02T09:11:10.629Z,84.1
2023-02-02T09:17:33.590Z,84.44
2023-02-02T09:23:53.612Z,85.24
2023-02-02T09:30:16.595Z,85.48
2023-02-02T09:36:36.579Z,84.83
2023-02-02T09:53:05.625Z,82.93
2023-02-02T09:59:24.806Z,82.76
2023-02-02T10:05:47.588Z,82.33
2023-02-02T10:12:07.605Z,81.9
2023-02-02T10:18:30.611Z,82.51
2023-02-02T10:24:50.644Z,84.17
2023-02-02T10:31:13.709Z,84.02
2023-02-02T10:37:33.663Z,84.42
2023-02-02T10:43:56.616Z,83.99
2023-02-02T10:50:16.614Z,83.37
2023-02-02T10:56:39.598Z,83.36
2023-02-02T11:02:59.663Z,83.38
2023-02-02T11:09:22.651Z,82.49
2023-02-02T11:15:42.608Z,82.04
2023-02-02T11:22:05.594Z,81.96
2023-02-02T11:28:25.651Z,81.77
2023-02-02T11:34:48.597Z,80.68
2023-02-02T11:41:08.653Z,80.53
2023-02-02T11:47:31.607Z,80.56
2023-02-02T11:53:51.748Z,80.34
2023-02-02T12:00:14.612Z,79.79
2023-02-02T12:06:34.652Z,79.6
2023-02-02T12:12:57.641Z,79.08
2023-02-02T12:19:17.618Z,79.43
2023-02-02T12:25:40.650Z,78.56
2023-02-02T12:32:00.827Z,78.27
2023-02-02T12:38:23.571Z,78.32
2023-02-02T12:44:43.592Z,78.26
2023-02-02T12:51:06.599Z,78.36
2023-02-02T12:57:26.630Z,77.83
2023-02-02T13:03:49.686Z,77.55
2023-02-02T13:10:09.617Z,77.45
2023-02-02T13:16:32.691Z,77.04
2023-02-02T13:22:52.596Z,76.24
2023-02-02T13:29:15.767Z,76.6
2023-02-02T13:35:35.791Z,76.75
2023-02-02T13:41:58.608Z,76.19
2023-02-02T13:48:18.602Z,76.27
2023-02-02T13:54:41.979Z,76.45
2023-02-02T14:01:01.694Z,76.47
2023-02-02T14:07:24.735Z,76.13
2023-02-02T14:13:44.598Z,76.24
2023-02-02T14:20:07.626Z,76.21
2023-02-02T14:26:27.689Z,76.13
2023-02-02T14:32:50.621Z,75.84
2023-02-02T14:39:10.693Z,75.82
2023-02-02T14:45:33.576Z,75.84
2023-02-02T15:09:15.111Z,75.98
2023-02-02T15:15:34.563Z,76.07
2023-02-02T15:21:57.658Z,75.86
2023-02-02T15:28:17.613Z,75.77
2023-02-02T15:34:40.626Z,75.63
2023-02-02T15:41:00.635Z,75.25
2023-02-02T15:47:23.616Z,75
2023-02-02T15:53:43.772Z,74.94
2023-02-02T16:00:06.611Z,74.64
2023-02-02T16:06:26.641Z,75.46
2023-02-02T16:12:49.618Z,75.55
2023-02-02T16:19:09.619Z,75.68
2023-02-02T16:25:32.740Z,75.41
2023-02-02T16:31:52.606Z,75.25
2023-02-02T16:38:15.588Z,75.09
2023-02-02T16:44:35.603Z,75.02
2023-02-02T16:50:58.628Z,75.18
2023-02-02T16:57:18.584Z,74.68
2023-02-02T17:03:41.617Z,74.73
2023-02-02T17:10:01.631Z,74.62
2023-02-02T17:16:24.664Z,74.61
2023-02-02T17:22:44.637Z,74.68
2023-02-02T17:29:07.608Z,74.7
2023-02-02T17:35:31.044Z,74.47
2023-02-02T17:41:50.616Z,74.69
2023-02-02T17:48:10.582Z,74.76
2023-02-02T17:54:33.605Z,74.81
2023-02-02T18:00:53.675Z,74.85
2023-02-02T18:07:16.581Z,75
2023-02-02T18:13:36.623Z,75.17
2023-02-02T18:19:59.610Z,75.6
2023-02-02T18:26:19.689Z,76.4
2023-02-02T18:32:42.597Z,77.51
2023-02-02T18:39:02.609Z,78.22
2023-02-02T18:45:25.944Z,78.79
2023-02-02T18:51:45.589Z,79.33
2023-02-02T18:58:08.636Z,79.89
2023-02-02T19:04:28.573Z,80.73
2023-02-02T19:10:51.630Z,80.69
2023-02-02T19:17:11.608Z,80.57
2023-02-02T19:23:34.631Z,80.42
2023-02-02T19:29:54.589Z,80.32
2023-02-02T19:36:17.628Z,80.3
2023-02-02T19:42:37.571Z,79.99
2023-02-02T19:49:00.595Z,79.73
2023-02-02T19:55:20.611Z,79.72
2023-02-02T20:01:43.585Z,79.7
2023-02-02T20:17:33.505Z,79.67
2023-02-02T20:23:53.554Z,79.53
2023-02-02T20:30:16.618Z,79.55
2023-02-02T20:36:36.615Z,79.46
2023-02-02T20:42:59.623Z,79.5
2023-02-02T20:49:19.640Z,79.41
2023-02-02T20:55:43.615Z,79.47
2023-02-02T21:02:03.653Z,79.48
2023-02-02T21:08:26.589Z,79.35
2023-02-02T21:14:46.602Z,79.24
2023-02-02T21:21:09.659Z,79.44
2023-02-02T21:27:32.594Z,79.38
2023-02-02T21:33:55.576Z,79.31
2023-02-02T21:40:15.594Z,79.49
2023-02-02T21:46:38.644Z,80.16
2023-02-02T21:52:58.627Z,80.46
2023-02-02T21:59:21.606Z,80.25
2023-02-02T22:05:41.614Z,80.47
2023-02-02T22:12:04.683Z,80.53
2023-02-02T22:18:24.602Z,80.95
2023-02-02T22:24:47.608Z,81.57
2023-02-02T22:31:07.745Z,82.45
2023-02-02T22:37:30.615Z,82.5
2023-02-02T22:43:50.592Z,82.66
2023-02-02T22:50:13.634Z,82.39
2023-02-02T22:56:33.647Z,82.2
2023-02-02T23:20:50.649Z,81.73
2023-02-02T23:27:10.563Z,81.54
2023-02-02T23:33:33.649Z,81.22
2023-02-02T23:39:53.689Z,81.04
2023-02-02T23:46:16.768Z,80.8
2023-02-02T23:52:36.608Z,80.45
2023-02-02T23:58:59.621Z,80.22
